TimeEST,TemperatureF,Dew PointF,Humidity,Sea Level PressureIn,VisibilityMPH,Wind Direction,Wind SpeedMPH,Gust SpeedMPH,PrecipitationIn,Events,Conditions,WindDirDegrees,DateUTC
12:15 AM,28.4,28.4,100,29.93,3.0,South,6.9,-,0.00,,Mostly Cloudy,180,2013-12-17 05:15:00
12:55 AM,30.2,30.2,100,29.92,3.0,North,-9999.0,-,0.00,,Overcast,0,2013-12-17 05:55:00
1:15 AM,30.2,30.2,100,29.91,3.0,SW,8.1,-,0.00,,Overcast,230,2013-12-17 06:15:00
1:35 AM,30.2,30.2,100,29.91,3.0,WSW,12.7,-,0.00,,Overcast,240,2013-12-17 06:35:00
1:55 AM,30.2,30.2,100,29.93,2.0,West,9.2,-,0.00,,Overcast,260,2013-12-17 06:55:00
2:15 AM,30.2,30.2,100,29.93,0.8,West,11.5,-,0.00,,Overcast,280,2013-12-17 07:15:00
2:35 AM,28.4,28.4,100,29.95,2.0,WNW,11.5,18.4,0.00,,Overcast,290,2013-12-17 07:35:00
2:55 AM,28.4,28.4,100,29.95,2.5,WNW,12.7,-,0.00,,Mostly Cloudy,290,2013-12-17 07:55:00
3:15 AM,26.6,26.6,100,29.95,2.5,WNW,10.4,-,0.00,,Overcast,290,2013-12-17 08:15:00
3:35 AM,26.6,26.6,100,29.95,4.0,WNW,15.0,-,0.00,,Overcast,300,2013-12-17 08:35:00
3:55 AM,-9999,-9999,N/A,29.94,5.0,WNW,8.1,-,0.00,,Mostly Cloudy,290,2013-12-17 08:55:00
4:15 AM,24.8,24.8,100,29.94,5.0,West,5.8,-,0.00,,Overcast,280,2013-12-17 09:15:00
4:35 AM,24.8,23.0,93,29.94,6.0,West,8.1,-,0.00,,Overcast,270,2013-12-17 09:35:00
4:55 AM,24.8,23.0,93,29.95,6.0,West,6.9,-,0.00,,Overcast,280,2013-12-17 09:55:00
5:15 AM,23.0,23.0,100,29.94,6.0,WNW,8.1,-,0.00,,Overcast,290,2013-12-17 10:15:00
5:35 AM,23.0,23.0,100,29.94,7.0,WNW,8.1,-,0.00,,Overcast,300,2013-12-17 10:35:00
5:55 AM,23.0,21.2,93,29.97,6.0,WNW,10.4,-,0.00,,Overcast,290,2013-12-17 10:55:00
6:15 AM,23.0,21.2,93,29.99,5.0,WNW,5.8,-,0.00,,Overcast,300,2013-12-17 11:15:00
6:35 AM,23.0,23.0,100,29.98,4.0,WNW,6.9,-,0.00,,Overcast,290,2013-12-17 11:35:00
6:55 AM,23.0,23.0,100,29.99,3.0,West,8.1,-,0.00,,Overcast,280,2013-12-17 11:55:00
7:15 AM,23.0,23.0,100,29.98,4.0,WNW,8.1,-,0.00,,Mostly Cloudy,290,2013-12-17 12:15:00
7:35 AM,23.0,21.2,93,29.98,4.0,West,5.8,-,0.00,,Mostly Cloudy,260,2013-12-17 12:35:00
7:55 AM,23.0,21.2,93,29.99,4.0,WNW,9.2,-,0.00,,Overcast,290,2013-12-17 12:55:00
8:15 AM,23.0,21.2,93,29.99,3.0,West,5.8,-,0.00,,Overcast,280,2013-12-17 13:15:00
8:35 AM,23.0,21.2,93,29.99,3.0,WNW,9.2,-,0.00,,Overcast,300,2013-12-17 13:35:00
8:55 AM,23.0,21.2,93,30.01,3.0,WNW,10.4,-,0.00,,Overcast,300,2013-12-17 13:55:00
9:15 AM,23.0,23.0,100,30.00,3.0,WNW,4.6,-,0.00,,Mostly Cloudy,300,2013-12-17 14:15:00
9:35 AM,23.0,23.0,100,30.01,3.0,West,4.6,-,0.00,,Mostly Cloudy,280,2013-12-17 14:35:00
9:55 AM,23.0,23.0,100,30.02,3.0,West,6.9,-,0.00,,Mostly Cloudy,260,2013-12-17 14:55:00
10:15 AM,23.0,23.0,100,30.02,3.0,WSW,8.1,-,0.00,,Mostly Cloudy,240,2013-12-17 15:15:00
10:35 AM,23.0,23.0,100,30.02,3.0,SW,8.1,-,0.00,,Overcast,220,2013-12-17 15:35:00
10:55 AM,24.8,23.0,93,30.01,4.0,SW,10.4,-,0.00,,Overcast,230,2013-12-17 15:55:00
11:15 AM,24.8,23.0,93,30.00,5.0,SSW,10.4,-,0.00,,Overcast,200,2013-12-17 16:15:00
11:35 AM,24.8,21.2,86,29.99,5.0,SW,11.5,-,0.00,,Overcast,220,2013-12-17 16:35:00
11:55 AM,26.6,23.0,86,29.98,5.0,SW,11.5,-,0.00,,Overcast,220,2013-12-17 16:55:00
12:15 PM,26.6,23.0,86,29.96,5.0,SSW,11.5,-,0.00,,Overcast,210,2013-12-17 17:15:00
12:35 PM,26.6,23.0,86,29.96,5.0,SW,13.8,-,0.00,,Overcast,230,2013-12-17 17:35:00
12:55 PM,26.6,23.0,86,29.95,7.0,SSW,11.5,-,0.00,,Overcast,210,2013-12-17 17:55:00
1:15 PM,26.6,23.0,86,29.94,7.0,SSW,13.8,-,0.00,,Overcast,210,2013-12-17 18:15:00
1:35 PM,26.6,23.0,86,29.93,7.0,SW,13.8,-,0.00,,Overcast,220,2013-12-17 18:35:00
1:55 PM,26.6,23.0,86,29.92,8.0,SW,13.8,-,0.00,,Overcast,220,2013-12-17 18:55:00
2:15 PM,26.6,23.0,86,29.94,9.0,SW,13.8,-,0.00,,Overcast,230,2013-12-17 19:15:00
2:35 PM,26.6,23.0,86,29.94,7.0,SW,12.7,19.6,0.00,,Overcast,220,2013-12-17 19:35:00
2:55 PM,26.6,23.0,86,29.94,9.0,SW,13.8,-,0.00,,Overcast,220,2013-12-17 19:55:00
3:15 PM,26.6,23.0,86,29.94,7.0,SW,16.1,-,0.00,,Scattered Clouds,220,2013-12-17 20:15:00
3:35 PM,26.6,23.0,86,29.94,7.0,SW,12.7,-,0.00,,Clear,220,2013-12-17 20:35:00
3:55 PM,24.8,23.0,93,29.93,7.0,SSW,10.4,-,0.00,,Clear,210,2013-12-17 20:55:00
4:15 PM,26.6,23.0,86,29.95,8.0,SSW,10.4,-,0.00,,Partly Cloudy,210,2013-12-17 21:15:00
4:35 PM,26.6,23.0,86,29.94,2.5,SSW,11.5,-,0.00,,Partly Cloudy,210,2013-12-17 21:35:00
4:55 PM,26.6,23.0,86,29.95,1.2,SW,11.5,-,0.00,,Overcast,220,2013-12-17 21:55:00
5:15 PM,26.6,23.0,86,29.95,0.8,SW,10.4,-,0.00,,Overcast,220,2013-12-17 22:15:00
5:35 PM,26.6,24.8,93,29.96,1.8,SW,10.4,-,0.00,,Overcast,220,2013-12-17 22:35:00
5:55 PM,26.6,24.8,93,29.97,2.5,SW,10.4,-,0.00,,Mostly Cloudy,230,2013-12-17 22:55:00
6:15 PM,26.6,24.8,93,29.97,4.0,WSW,10.4,-,0.00,,Overcast,240,2013-12-17 23:15:00
6:35 PM,26.6,24.8,93,29.98,7.0,WSW,12.7,-,0.00,,Overcast,250,2013-12-17 23:35:00
6:55 PM,26.6,24.8,93,29.99,6.0,West,13.8,20.7,0.00,,Overcast,260,2013-12-17 23:55:00
7:15 PM,26.6,24.8,93,30.00,5.0,West,12.7,17.3,0.00,,Overcast,270,2013-12-18 00:15:00
7:35 PM,26.6,24.8,93,30.01,5.0,West,10.4,-,0.00,,Overcast,270,2013-12-18 00:35:00
7:55 PM,26.6,24.8,93,30.02,5.0,West,11.5,-,0.00,,Overcast,280,2013-12-18 00:55:00
8:15 PM,26.6,24.8,93,30.02,5.0,West,9.2,-,0.00,,Overcast,280,2013-12-18 01:15:00
8:35 PM,26.6,24.8,93,30.03,5.0,West,9.2,-,0.00,,Overcast,280,2013-12-18 01:35:00
8:55 PM,26.6,26.6,100,30.03,6.0,West,12.7,19.6,0.00,,Overcast,260,2013-12-18 01:55:00
9:15 PM,28.4,24.8,86,30.03,7.0,West,10.4,-,0.00,,Overcast,260,2013-12-18 02:15:00
9:35 PM,28.4,24.8,86,30.04,9.0,West,10.4,-,0.00,,Overcast,270,2013-12-18 02:35:00
9:55 PM,28.4,24.8,86,30.04,8.0,West,13.8,-,0.00,,Overcast,260,2013-12-18 02:55:00
10:15 PM,28.4,24.8,86,30.04,8.0,WSW,8.1,-,0.00,,Overcast,240,2013-12-18 03:15:00
10:35 PM,28.4,23.0,80,30.05,9.0,WSW,9.2,-,0.00,,Overcast,240,2013-12-18 03:35:00
10:55 PM,28.4,24.8,86,30.05,8.0,SW,9.2,-,0.00,,Overcast,230,2013-12-18 03:55:00
11:15 PM,28.4,24.8,86,30.05,7.0,WSW,10.4,-,0.00,,Mostly Cloudy,240,2013-12-18 04:15:00
11:35 PM,28.4,26.6,93,30.05,7.0,WSW,12.7,19.6,0.00,,Overcast,240,2013-12-18 04:35:00
11:55 PM,28.4,24.8,86,30.05,8.0,WSW,9.2,-,0.00,,Overcast,240,2013-12-18 04:55:00